Terminal Aerodrome Forecast
Issued by NWS North Platte, NE

Home | Current Version | Previous Version | Text Only | Print | Product List | Glossary On
Versions: 1 2 3 4 5 6 7 8 9 10 11 12 13 14 15 16 17 18 19
000
FTUS43 KLBF 021700
TAFVTN
TAF
KVTN 021737Z 0218/0318 17020G29KT P6SM SCT060 BKN150
     FM030400 16012G19KT 6SM -FZDZ BR BKN015 OVC040
     FM030600 24007KT 4SM -SN BR OVC007
     FM030800 35014G24KT 2SM -SN BR OVC004
      TEMPO 0309/0312 3/4SM -SN BR
     FM031500 34022G34KT P6SM OVC015=

USA.gov is the U.S. government's official web portal to all federal, state and local government web resources and services.